sensor_id;sensor_type;location;lat;lon;timestamp;pressure;altitude;pressure_sealevel;temperature;humidity
73306;BME280;61530;51.158;0.880;2023-03-01T00:00:47;1028.86;;;0.75;35.3261
73306;BME280;61530;51.158;0.880;2023-03-01T00:01:50;1028.85;;;0.75;35.7679
73306;BME280;61530;51.158;0.880;2023-03-01T00:02:54;1028.84;;;0.6875;35.6018
73306;BME280;61530;51.158;0.880;2023-03-01T00:03:59;1028.83;;;0.5;36.6736
73306;BME280;61530;51.158;0.880;2023-03-01T00:05:03;1028.8;;;0.75;36.9218
73306;BME280;61530;51.158;0.880;2023-03-01T00:06:06;1028.79;;;0.6875;35.3446
73306;BME280;61530;51.158;0.880;2023-03-01T00:07:10;1028.79;;;0.875;36.1185
73306;BME280;61530;51.158;0.880;2023-03-01T00:08:14;1028.81;;;1.0;35.9421
73306;BME280;61530;51.158;0.880;2023-03-01T00:09:19;1028.81;;;1.0;35.6147
73306;BME280;61530;51.158;0.880;2023-03-01T00:10:22;1028.81;;;1.0;34.9129
73306;BME280;61530;51.158;0.880;2023-03-01T00:11:28;1028.83;;;1.0;35.7044
73306;BME280;61530;51.158;0.880;2023-03-01T00:12:31;1028.79;;;0.9375;35.7837
73306;BME280;61530;51.158;0.880;2023-03-01T00:13:35;1028.77;;;1.0625;35.0699
73306;BME280;61530;51.158;0.880;2023-03-01T00:14:38;1028.77;;;1.0;35.556
73306;BME280;61530;51.158;0.880;2023-03-01T00:15:42;1028.81;;;0.9375;35.8553
73306;BME280;61530;51.158;0.880;2023-03-01T00:16:46;1028.79;;;1.0625;34.86
73306;BME280;61530;51.158;0.880;2023-03-01T00:17:51;1028.77;;;1.125;34.7002
73306;BME280;61530;51.158;0.880;2023-03-01T00:18:55;1028.72;;;1.125;34.7462
73306;BME280;61530;51.158;0.880;2023-03-01T00:19:58;1028.72;;;1.0625;35.4725
73306;BME280;61530;51.158;0.880;2023-03-01T00:21:02;1028.68;;;1.0;35.4043
73306;BME280;61530;51.158;0.880;2023-03-01T00:22:07;1028.67;;;0.875;36.165
73306;BME280;61530;51.158;0.880;2023-03-01T00:23:10;1028.7;;;0.875;35.8988
73306;BME280;61530;51.158;0.880;2023-03-01T00:24:15;1028.66;;;0.6875;35.6119
73306;BME280;61530;51.158;0.880;2023-03-01T00:25:18;1028.69;;;0.75;35.8991
73306;BME280;61530;51.158;0.880;2023-03-01T00:26:25;1028.7;;;0.6875;35.9874
73306;BME280;61530;51.158;0.880;2023-03-01T00:27:26;1028.68;;;0.75;36.4511
73306;BME280;61530;51.158;0.880;2023-03-01T00:28:31;1028.66;;;0.9375;35.8846
73306;BME280;61530;51.158;0.880;2023-03-01T00:29:34;1028.68;;;1.0;35.8906
73306;BME280;61530;51.158;0.880;2023-03-01T00:30:39;1028.67;;;1.125;35.6014
73306;BME280;61530;51.158;0.880;2023-03-01T00:31:42;1028.69;;;1.1875;35.5101
73306;BME280;61530;51.158;0.880;2023-03-01T00:32:46;1028.71;;;1.1875;35.839
73306;BME280;61530;51.158;0.880;2023-03-01T00:33:53;1028.68;;;1.25;35.7944
73306;BME280;61530;51.158;0.880;2023-03-01T00:34:55;1028.71;;;1.25;34.9549
73306;BME280;61530;51.158;0.880;2023-03-01T00:35:59;1028.7;;;1.1875;35.3167
73306;BME280;61530;51.158;0.880;2023-03-01T00:37:03;1028.71;;;1.1875;35.1363
73306;BME280;61530;51.158;0.880;2023-03-01T00:38:06;1028.71;;;1.1875;34.8524
73306;BME280;61530;51.158;0.880;2023-03-01T00:39:13;1028.71;;;1.1875;34.6356
73306;BME280;61530;51.158;0.880;2023-03-01T00:40:14;1028.68;;;1.25;35.4571
73306;BME280;61530;51.158;0.880;2023-03-01T00:41:19;1028.67;;;1.3125;36.1598
73306;BME280;61530;51.158;0.880;2023-03-01T00:42:22;1028.69;;;1.375;35.4794
73306;BME280;61530;51.158;0.880;2023-03-01T00:43:27;1028.67;;;1.375;35.5522
73306;BME280;61530;51.158;0.880;2023-03-01T00:44:30;1028.66;;;1.375;35.4511
73306;BME280;61530;51.158;0.880;2023-03-01T00:45:34;1028.67;;;1.4375;35.3144
73306;BME280;61530;51.158;0.880;2023-03-01T00:46:38;1028.62;;;1.5;35.4556
73306;BME280;61530;51.158;0.880;2023-03-01T00:47:43;1028.61;;;1.5;35.2924
73306;BME280;61530;51.158;0.880;2023-03-01T00:48:46;1028.63;;;1.5;35.9261
73306;BME280;61530;51.158;0.880;2023-03-01T00:49:50;1028.62;;;1.5625;35.507
73306;BME280;61530;51.158;0.880;2023-03-01T00:50:54;1028.59;;;1.5625;34.901
73306;BME280;61530;51.158;0.880;2023-03-01T00:51:59;1028.6;;;1.5;35.7675
73306;BME280;61530;51.158;0.880;2023-03-01T00:53:02;1028.61;;;1.5;35.7905
73306;BME280;61530;51.158;0.880;2023-03-01T00:54:09;1028.62;;;1.5;35.7674
73306;BME280;61530;51.158;0.880;2023-03-01T00:55:11;1028.61;;;1.5625;35.6378
73306;BME280;61530;51.158;0.880;2023-03-01T00:56:15;1028.61;;;1.5;35.2507
73306;BME280;61530;51.158;0.880;2023-03-01T00:57:18;1028.64;;;1.5625;35.6026
73306;BME280;61530;51.158;0.880;2023-03-01T01:05:11;1028.59;;;1.5;35.0531
73306;BME280;61530;51.158;0.880;2023-03-01T01:06:17;1028.58;;;1.5;34.7904
73306;BME280;61530;51.158;0.880;2023-03-01T01:07:18;1028.54;;;1.5;34.3256
73306;BME280;61530;51.158;0.880;2023-03-01T01:08:22;1028.54;;;1.5625;34.173
73306;BME280;61530;51.158;0.880;2023-03-01T01:09:26;1028.57;;;1.375;34.4509
73306;BME280;61530;51.158;0.880;2023-03-01T01:10:33;1028.55;;;1.4375;34.9574
73306;BME280;61530;51.158;0.880;2023-03-01T01:11:35;1028.55;;;1.4375;34.3716
73306;BME280;61530;51.158;0.880;2023-03-01T01:12:38;1028.51;;;1.4375;34.0818
73306;BME280;61530;51.158;0.880;2023-03-01T01:13:44;1028.53;;;1.5;33.8706
73306;BME280;61530;51.158;0.880;2023-03-01T01:14:47;1028.51;;;1.4375;33.9496
73306;BME280;61530;51.158;0.880;2023-03-01T01:15:50;1028.51;;;1.5;33.905
73306;BME280;61530;51.158;0.880;2023-03-01T01:16:54;1028.53;;;1.375;34.7684
73306;BME280;61530;51.158;0.880;2023-03-01T01:17:58;1028.51;;;1.5625;35.0627
73306;BME280;61530;51.158;0.880;2023-03-01T01:19:03;1028.52;;;1.625;35.2665
73306;BME280;61530;51.158;0.880;2023-03-01T01:20:08;1028.5;;;1.6875;35.3286
73306;BME280;61530;51.158;0.880;2023-03-01T01:21:13;1028.49;;;1.6875;34.6412
73306;BME280;61530;51.158;0.880;2023-03-01T01:22:14;1028.5;;;1.6875;34.4488
73306;BME280;61530;51.158;0.880;2023-03-01T01:23:19;1028.54;;;1.6875;34.7656
73306;BME280;61530;51.158;0.880;2023-03-01T01:24:22;1028.53;;;1.625;35.4478
73306;BME280;61530;51.158;0.880;2023-03-01T01:25:26;1028.53;;;1.75;33.9371
73306;BME280;61530;51.158;0.880;2023-03-01T01:26:32;1028.51;;;1.6875;35.0739
73306;BME280;61530;51.158;0.880;2023-03-01T01:27:35;1028.53;;;1.75;34.5101
73306;BME280;61530;51.158;0.880;2023-03-01T01:28:39;1028.5;;;1.875;35.0028
73306;BME280;61530;51.158;0.880;2023-03-01T01:29:42;1028.5;;;1.9375;34.7758
73306;BME280;61530;51.158;0.880;2023-03-01T01:30:49;1028.5;;;1.9375;34.9686
73306;BME280;61530;51.158;0.880;2023-03-01T01:31:51;1028.5;;;1.875;35.4113
73306;BME280;61530;51.158;0.880;2023-03-01T01:32:54;1028.46;;;1.9375;35.4961
73306;BME280;61530;51.158;0.880;2023-03-01T01:34:00;1028.44;;;2.0;35.0133
73306;BME280;61530;51.158;0.880;2023-03-01T01:35:03;1028.43;;;1.9375;34.3137
73306;BME280;61530;51.158;0.880;2023-03-01T01:36:08;1028.4;;;2.0;34.9804
73306;BME280;61530;51.158;0.880;2023-03-01T01:37:10;1028.37;;;2.0;34.838
73306;BME280;61530;51.158;0.880;2023-03-01T01:38:14;1028.38;;;1.9375;34.7932
73306;BME280;61530;51.158;0.880;2023-03-01T01:39:18;1028.34;;;2.0625;35.1549
73306;BME280;61530;51.158;0.880;2023-03-01T01:40:23;1028.38;;;2.0;34.829
73306;BME280;61530;51.158;0.880;2023-03-01T01:41:28;1028.34;;;2.0625;35.298
73306;BME280;61530;51.158;0.880;2023-03-01T01:42:30;1028.33;;;2.0625;33.9435
73306;BME280;61530;51.158;0.880;2023-03-01T01:43:36;1028.29;;;2.1875;34.4586
73306;BME280;61530;51.158;0.880;2023-03-01T01:44:40;1028.3;;;2.1875;34.4017
73306;BME280;61530;51.158;0.880;2023-03-01T01:45:42;1028.27;;;2.25;34.8197
73306;BME280;61530;51.158;0.880;2023-03-01T01:46:50;1028.26;;;2.25;34.2182
73306;BME280;61530;51.158;0.880;2023-03-01T01:47:50;1028.27;;;2.25;34.5476
73306;BME280;61530;51.158;0.880;2023-03-01T01:48:59;1028.23;;;2.3125;33.4234
73306;BME280;61530;51.158;0.880;2023-03-01T01:49:58;1028.23;;;2.25;33.803
73306;BME280;61530;51.158;0.880;2023-03-01T01:51:03;1028.22;;;2.4375;33.9217
73306;BME280;61530;51.158;0.880;2023-03-01T01:52:10;1028.18;;;2.375;33.0833
73306;BME280;61530;51.158;0.880;2023-03-01T01:53:15;1028.19;;;2.375;33.1923
73306;BME280;61530;51.158;0.880;2023-03-01T01:54:18;1028.2;;;2.3125;32.9692
73306;BME280;61530;51.158;0.880;2023-03-01T01:55:21;1028.15;;;2.3125;33.0517
73306;BME280;61530;51.158;0.880;2023-03-01T01:56:23;1028.15;;;2.3125;33.1109
73306;BME280;61530;51.158;0.880;2023-03-01T01:57:29;1028.11;;;2.25;33.4019
73306;BME280;61530;51.158;0.880;2023-03-01T01:58:30;1028.1;;;2.25;33.8767
73306;BME280;61530;51.158;0.880;2023-03-01T01:59:35;1028.08;;;2.1875;33.0054
73306;BME280;61530;51.158;0.880;2023-03-01T02:00:38;1028.04;;;2.1875;33.1971
73306;BME280;61530;51.158;0.880;2023-03-01T02:01:43;1028.02;;;2.1875;33.6123
73306;BME280;61530;51.158;0.880;2023-03-01T02:02:49;1028.02;;;2.3125;34.0249
73306;BME280;61530;51.158;0.880;2023-03-01T02:03:51;1028.02;;;2.3125;34.1839
73306;BME280;61530;51.158;0.880;2023-03-01T02:05:03;1028.02;;;2.375;33.453
73306;BME280;61530;51.158;0.880;2023-03-01T02:06:04;1028.0;;;2.375;33.5109
73306;BME280;61530;51.158;0.880;2023-03-01T02:07:09;1027.98;;;2.375;34.049
73306;BME280;61530;51.158;0.880;2023-03-01T02:08:08;1027.96;;;2.375;32.6478
73306;BME280;61530;51.158;0.880;2023-03-01T02:09:13;1027.95;;;2.375;32.62
73306;BME280;61530;51.158;0.880;2023-03-01T02:10:15;1027.93;;;2.4375;33.5012
73306;BME280;61530;51.158;0.880;2023-03-01T02:11:18;1027.91;;;2.5;34.4418
73306;BME280;61530;51.158;0.880;2023-03-01T02:12:24;1027.88;;;2.5625;34.344
73306;BME280;61530;51.158;0.880;2023-03-01T02:13:26;1027.91;;;2.5625;33.3805
73306;BME280;61530;51.158;0.880;2023-03-01T02:14:31;1027.87;;;2.5625;33.1017
73306;BME280;61530;51.158;0.880;2023-03-01T02:15:36;1027.87;;;2.5625;33.0536
73306;BME280;61530;51.158;0.880;2023-03-01T02:16:38;1027.86;;;2.625;33.2583
73306;BME280;61530;51.158;0.880;2023-03-01T02:17:42;1027.85;;;2.5625;33.7384
73306;BME280;61530;51.158;0.880;2023-03-01T02:18:47;1027.81;;;2.5625;32.8754
73306;BME280;61530;51.158;0.880;2023-03-01T02:20:03;1027.81;;;2.5625;33.749
73306;BME280;61530;51.158;0.880;2023-03-01T02:21:05;1027.83;;;2.6875;34.3468
73306;BME280;61530;51.158;0.880;2023-03-01T02:22:02;1027.85;;;2.5625;33.7114
73306;BME280;61530;51.158;0.880;2023-03-01T02:23:03;1027.85;;;2.5625;33.6914
73306;BME280;61530;51.158;0.880;2023-03-01T02:24:15;1027.85;;;2.6875;33.5254
73306;BME280;61530;51.158;0.880;2023-03-01T02:25:33;1027.89;;;2.625;34.5002
73306;BME280;61530;51.158;0.880;2023-03-01T02:26:18;1027.85;;;2.6875;33.8452
73306;BME280;61530;51.158;0.880;2023-03-01T02:27:22;1027.88;;;2.625;34.5749
73306;BME280;61530;51.158;0.880;2023-03-01T02:28:28;1027.85;;;2.625;34.2656
73306;BME280;61530;51.158;0.880;2023-03-01T02:29:27;1027.83;;;2.5625;34.6137
73306;BME280;61530;51.158;0.880;2023-03-01T02:30:31;1027.83;;;2.5625;33.4877
73306;BME280;61530;51.158;0.880;2023-03-01T02:31:35;1027.8;;;2.5;33.6734
73306;BME280;61530;51.158;0.880;2023-03-01T02:32:39;1027.76;;;2.4375;32.8153
73306;BME280;61530;51.158;0.880;2023-03-01T02:33:43;1027.75;;;2.375;33.7115
73306;BME280;61530;51.158;0.880;2023-03-01T02:34:46;1027.72;;;2.375;32.7154
73306;BME280;61530;51.158;0.880;2023-03-01T02:35:53;1027.68;;;2.25;32.7515
73306;BME280;61530;51.158;0.880;2023-03-01T02:36:57;1027.67;;;2.25;32.3968
73306;BME280;61530;51.158;0.880;2023-03-01T02:37:59;1027.65;;;2.1875;32.1994
73306;BME280;61530;51.158;0.880;2023-03-01T02:39:05;1027.61;;;2.1875;31.8688
73306;BME280;61530;51.158;0.880;2023-03-01T02:40:11;1027.59;;;2.1875;31.8306
73306;BME280;61530;51.158;0.880;2023-03-01T02:41:13;1027.59;;;2.1875;32.3397
73306;BME280;61530;51.158;0.880;2023-03-01T02:42:18;1027.56;;;2.0625;31.8763
73306;BME280;61530;51.158;0.880;2023-03-01T02:43:19;1027.59;;;2.0625;32.5705
73306;BME280;61530;51.158;0.880;2023-03-01T02:44:23;1027.59;;;1.875;33.1253
73306;BME280;61530;51.158;0.880;2023-03-01T02:45:27;1027.59;;;2.0;33.3658
73306;BME280;61530;51.158;0.880;2023-03-01T02:46:31;1027.59;;;1.9375;32.3037
73306;BME280;61530;51.158;0.880;2023-03-01T02:47:34;1027.6;;;1.875;32.9547
73306;BME280;61530;51.158;0.880;2023-03-01T02:48:41;1027.6;;;1.9375;33.1884
73306;BME280;61530;51.158;0.880;2023-03-01T02:49:42;1027.56;;;1.8125;32.6243
73306;BME280;61530;51.158;0.880;2023-03-01T02:50:57;1027.57;;;1.8125;32.8557
73306;BME280;61530;51.158;0.880;2023-03-01T02:52:07;1027.55;;;1.75;32.4064
73306;BME280;61530;51.158;0.880;2023-03-01T02:53:00;1027.54;;;1.8125;32.9299
73306;BME280;61530;51.158;0.880;2023-03-01T02:54:08;1027.55;;;1.8125;32.5841
73306;BME280;61530;51.158;0.880;2023-03-01T02:55:06;1027.55;;;1.75;33.2829
73306;BME280;61530;51.158;0.880;2023-03-01T02:56:06;1027.55;;;1.75;33.7131
73306;BME280;61530;51.158;0.880;2023-03-01T02:57:11;1027.53;;;1.6875;32.8455
73306;BME280;61530;51.158;0.880;2023-03-01T02:58:14;1027.55;;;1.625;32.4266
73306;BME280;61530;51.158;0.880;2023-03-01T02:59:21;1027.54;;;1.6875;33.2943
73306;BME280;61530;51.158;0.880;2023-03-01T03:00:26;1027.54;;;1.6875;32.9391
73306;BME280;61530;51.158;0.880;2023-03-01T03:01:27;1027.51;;;1.6875;33.8386
73306;BME280;61530;51.158;0.880;2023-03-01T03:02:30;1027.5;;;1.75;33.528
73306;BME280;61530;51.158;0.880;2023-03-01T03:03:34;1027.49;;;1.6875;33.4883
73306;BME280;61530;51.158;0.880;2023-03-01T03:04:38;1027.46;;;1.75;32.911
73306;BME280;61530;51.158;0.880;2023-03-01T03:05:43;1027.48;;;1.5625;32.9495
73306;BME280;61530;51.158;0.880;2023-03-01T03:06:47;1027.47;;;1.75;33.1021
73306;BME280;61530;51.158;0.880;2023-03-01T03:07:51;1027.5;;;1.6875;32.5699
73306;BME280;61530;51.158;0.880;2023-03-01T03:08:54;1027.49;;;1.5625;32.1906
73306;BME280;61530;51.158;0.880;2023-03-01T03:09:59;1027.48;;;1.625;32.46
73306;BME280;61530;51.158;0.880;2023-03-01T03:11:02;1027.49;;;1.625;32.9325
73306;BME280;61530;51.158;0.880;2023-03-01T03:12:06;1027.49;;;1.5625;33.4808
73306;BME280;61530;51.158;0.880;2023-03-01T03:13:12;1027.5;;;1.5625;33.2212
73306;BME280;61530;51.158;0.880;2023-03-01T03:14:16;1027.48;;;1.5625;32.8158
73306;BME280;61530;51.158;0.880;2023-03-01T03:15:19;1027.47;;;1.5625;33.5346
73306;BME280;61530;51.158;0.880;2023-03-01T03:16:23;1027.47;;;1.5;33.5116
73306;BME280;61530;51.158;0.880;2023-03-01T03:17:26;1027.5;;;1.5;33.5689
73306;BME280;61530;51.158;0.880;2023-03-01T03:18:31;1027.47;;;1.5;33.625
73306;BME280;61530;51.158;0.880;2023-03-01T03:19:34;1027.47;;;1.5625;33.3306
73306;BME280;61530;51.158;0.880;2023-03-01T03:20:40;1027.47;;;1.5625;33.1734
73306;BME280;61530;51.158;0.880;2023-03-01T03:21:42;1027.47;;;1.5625;33.9785
73306;BME280;61530;51.158;0.880;2023-03-01T03:22:48;1027.44;;;1.5;33.4475
73306;BME280;61530;51.158;0.880;2023-03-01T03:23:50;1027.42;;;1.5;33.6059
73306;BME280;61530;51.158;0.880;2023-03-01T03:24:54;1027.41;;;1.5;33.4357
73306;BME280;61530;51.158;0.880;2023-03-01T03:25:58;1027.42;;;1.5;32.9486
73306;BME280;61530;51.158;0.880;2023-03-01T03:27:03;1027.43;;;1.375;33.946
73306;BME280;61530;51.158;0.880;2023-03-01T03:28:07;1027.42;;;1.4375;32.8264
73306;BME280;61530;51.158;0.880;2023-03-01T03:29:10;1027.43;;;1.375;33.935
73306;BME280;61530;51.158;0.880;2023-03-01T03:30:16;1027.43;;;1.375;33.0677
73306;BME280;61530;51.158;0.880;2023-03-01T03:31:19;1027.44;;;1.375;33.7202
73306;BME280;61530;51.158;0.880;2023-03-01T03:32:22;1027.45;;;1.375;33.684
73306;BME280;61530;51.158;0.880;2023-03-01T03:33:26;1027.42;;;1.3125;34.0863
73306;BME280;61530;51.158;0.880;2023-03-01T03:34:30;1027.42;;;1.375;34.0192
73306;BME280;61530;51.158;0.880;2023-03-01T03:35:39;1027.43;;;1.25;33.64
73306;BME280;61530;51.158;0.880;2023-03-01T03:36:39;1027.42;;;1.3125;34.0364
73306;BME280;61530;51.158;0.880;2023-03-01T03:37:42;1027.43;;;1.0;34.2353
73306;BME280;61530;51.158;0.880;2023-03-01T03:38:46;1027.42;;;1.125;34.6446
73306;BME280;61530;51.158;0.880;2023-03-01T03:39:51;1027.41;;;1.1875;34.1452
73306;BME280;61530;51.158;0.880;2023-03-01T03:41:01;1027.39;;;1.0625;34.1276
73306;BME280;61530;51.158;0.880;2023-03-01T03:41:58;1027.37;;;1.0625;34.5083
73306;BME280;61530;51.158;0.880;2023-03-01T03:43:03;1027.36;;;1.125;34.1913
73306;BME280;61530;51.158;0.880;2023-03-01T03:44:07;1027.32;;;1.0625;33.9946
73306;BME280;61530;51.158;0.880;2023-03-01T03:45:10;1027.32;;;1.0;33.9833
73306;BME280;61530;51.158;0.880;2023-03-01T03:46:14;1027.3;;;1.0;34.2032
73306;BME280;61530;51.158;0.880;2023-03-01T03:47:18;1027.28;;;0.9375;34.0288
73306;BME280;61530;51.158;0.880;2023-03-01T03:48:23;1027.25;;;0.9375;34.1519
73306;BME280;61530;51.158;0.880;2023-03-01T03:49:26;1027.23;;;0.9375;34.3108
73306;BME280;61530;51.158;0.880;2023-03-01T03:50:31;1027.22;;;1.0;34.3718
73306;BME280;61530;51.158;0.880;2023-03-01T03:51:34;1027.21;;;0.875;34.2199
73306;BME280;61530;51.158;0.880;2023-03-01T03:52:39;1027.18;;;0.875;34.2714
73306;BME280;61530;51.158;0.880;2023-03-01T03:53:43;1027.15;;;0.875;34.5038
73306;BME280;61530;51.158;0.880;2023-03-01T03:54:46;1027.14;;;0.8125;34.6626
73306;BME280;61530;51.158;0.880;2023-03-01T03:55:50;1027.13;;;0.875;34.7237
73306;BME280;61530;51.158;0.880;2023-03-01T03:56:55;1027.13;;;0.875;34.5544
73306;BME280;61530;51.158;0.880;2023-03-01T03:57:59;1027.1;;;0.875;34.2035
73306;BME280;61530;51.158;0.880;2023-03-01T03:59:03;1027.09;;;0.875;34.3727
73306;BME280;61530;51.158;0.880;2023-03-01T04:00:09;1027.07;;;0.75;33.9388
73306;BME280;61530;51.158;0.880;2023-03-01T04:01:11;1027.08;;;0.75;34.5331
73306;BME280;61530;51.158;0.880;2023-03-01T04:02:14;1027.1;;;0.6875;34.8847
73306;BME280;61530;51.158;0.880;2023-03-01T04:03:19;1027.08;;;0.6875;34.8222
73306;BME280;61530;51.158;0.880;2023-03-01T04:04:22;1027.06;;;0.6875;34.4606
73306;BME280;61530;51.158;0.880;2023-03-01T04:05:27;1027.05;;;0.625;34.7499
73306;BME280;61530;51.158;0.880;2023-03-01T04:06:31;1027.05;;;0.6875;34.3729
73306;BME280;61530;51.158;0.880;2023-03-01T04:07:34;1027.04;;;0.625;35.1358
73306;BME280;61530;51.158;0.880;2023-03-01T04:08:38;1027.03;;;0.5625;35.2532
73306;BME280;61530;51.158;0.880;2023-03-01T04:09:43;1027.02;;;0.5625;35.1468
73306;BME280;61530;51.158;0.880;2023-03-01T04:10:50;1027.02;;;0.5625;35.219
73306;BME280;61530;51.158;0.880;2023-03-01T04:11:50;1027.03;;;0.5625;34.9415
73306;BME280;61530;51.158;0.880;2023-03-01T04:12:54;1027.03;;;0.5;35.8423
73306;BME280;61530;51.158;0.880;2023-03-01T04:13:59;1027.04;;;0.5625;35.0903
73306;BME280;61530;51.158;0.880;2023-03-01T04:15:03;1027.02;;;0.5;35.3455
73306;BME280;61530;51.158;0.880;2023-03-01T04:16:06;1027.02;;;0.5625;34.813
73306;BME280;61530;51.158;0.880;2023-03-01T04:17:10;1027.0;;;0.5;35.2829
73306;BME280;61530;51.158;0.880;2023-03-01T04:18:16;1027.0;;;0.5;35.2887
73306;BME280;61530;51.158;0.880;2023-03-01T04:19:18;1026.99;;;0.4375;34.6325
73306;BME280;61530;51.158;0.880;2023-03-01T04:20:25;1026.98;;;0.5625;35.2651
73306;BME280;61530;51.158;0.880;2023-03-01T04:21:26;1026.97;;;0.5;35.6386
73306;BME280;61530;51.158;0.880;2023-03-01T04:22:31;1026.97;;;0.625;34.8579
73306;BME280;61530;51.158;0.880;2023-03-01T04:23:34;1026.95;;;0.5625;34.8019
73306;BME280;61530;51.158;0.880;2023-03-01T04:24:38;1026.93;;;0.5625;35.0277
73306;BME280;61530;51.158;0.880;2023-03-01T04:25:45;1026.95;;;0.5625;35.5143
73306;BME280;61530;51.158;0.880;2023-03-01T04:26:47;1026.92;;;0.5625;35.4854
73306;BME280;61530;51.158;0.880;2023-03-01T04:27:50;1026.93;;;0.625;35.3728
73306;BME280;61530;51.158;0.880;2023-03-01T04:28:54;1026.88;;;0.625;35.0158
73306;BME280;61530;51.158;0.880;2023-03-01T04:29:58;1026.88;;;0.625;35.293
73306;BME280;61530;51.158;0.880;2023-03-01T04:31:05;1026.92;;;0.5625;35.6669
73306;BME280;61530;51.158;0.880;2023-03-01T04:32:06;1026.9;;;0.5625;35.4122
73306;BME280;61530;51.158;0.880;2023-03-01T04:33:11;1026.92;;;0.5;35.8598
73306;BME280;61530;51.158;0.880;2023-03-01T04:34:14;1026.92;;;0.625;35.2656
73306;BME280;61530;51.158;0.880;2023-03-01T04:35:19;1026.91;;;0.5625;35.6051
73306;BME280;61530;51.158;0.880;2023-03-01T04:36:24;1026.88;;;0.5;35.5143
73306;BME280;61530;51.158;0.880;2023-03-01T04:37:27;1026.85;;;0.5;35.4519
73306;BME280;61530;51.158;0.880;2023-03-01T04:38:30;1026.83;;;0.5625;35.6047
73306;BME280;61530;51.158;0.880;2023-03-01T04:39:35;1026.84;;;0.5;34.656
73306;BME280;61530;51.158;0.880;2023-03-01T04:40:38;1026.79;;;0.4375;34.9399
73306;BME280;61530;51.158;0.880;2023-03-01T04:41:42;1026.77;;;0.375;35.5269
73306;BME280;61530;51.158;0.880;2023-03-01T04:42:46;1026.75;;;0.4375;35.7753
73306;BME280;61530;51.158;0.880;2023-03-01T04:43:51;1026.75;;;0.3125;35.0973
73306;BME280;61530;51.158;0.880;2023-03-01T04:44:54;1026.74;;;0.3125;35.6118
73306;BME280;61530;51.158;0.880;2023-03-01T04:46:01;1026.71;;;0.375;35.1765
73306;BME280;61530;51.158;0.880;2023-03-01T04:47:02;1026.71;;;0.375;35.3742
73306;BME280;61530;51.158;0.880;2023-03-01T04:48:07;1026.71;;;0.3125;35.3572
73306;BME280;61530;51.158;0.880;2023-03-01T04:49:10;1026.68;;;0.375;35.0288
73306;BME280;61530;51.158;0.880;2023-03-01T04:50:16;1026.65;;;0.3125;35.2557
73306;BME280;61530;51.158;0.880;2023-03-01T04:51:18;1026.66;;;0.375;35.7634
73306;BME280;61530;51.158;0.880;2023-03-01T04:52:23;1026.67;;;0.4375;35.187
73306;BME280;61530;51.158;0.880;2023-03-01T04:53:27;1026.68;;;0.3125;35.5375
73306;BME280;61530;51.158;0.880;2023-03-01T04:54:32;1026.69;;;0.375;34.8138
73306;BME280;61530;51.158;0.880;2023-03-01T04:55:34;1026.67;;;0.4375;34.977
73306;BME280;61530;51.158;0.880;2023-03-01T04:56:39;1026.67;;;0.5;34.728
73306;BME280;61530;51.158;0.880;2023-03-01T04:57:42;1026.68;;;0.5625;34.808
73306;BME280;61530;51.158;0.880;2023-03-01T04:58:46;1026.68;;;0.5;35.3446
73306;BME280;61530;51.158;0.880;2023-03-01T04:59:50;1026.68;;;0.5625;35.5542
73306;BME280;61530;51.158;0.880;2023-03-01T05:00:55;1026.69;;;0.5;35.4759
73306;BME280;61530;51.158;0.880;2023-03-01T05:01:58;1026.69;;;0.375;34.9661
73306;BME280;61530;51.158;0.880;2023-03-01T05:03:03;1026.66;;;0.5;35.4122
73306;BME280;61530;51.158;0.880;2023-03-01T05:04:06;1026.65;;;0.4375;35.0848
73306;BME280;61530;51.158;0.880;2023-03-01T05:05:11;1026.66;;;0.5;35.1256
73306;BME280;61530;51.158;0.880;2023-03-01T05:06:14;1026.64;;;0.4375;33.8145
73306;BME280;61530;51.158;0.880;2023-03-01T05:07:18;1026.6;;;0.4375;34.0757
73306;BME280;61530;51.158;0.880;2023-03-01T05:08:22;1026.58;;;0.375;34.2559
73306;BME280;61530;51.158;0.880;2023-03-01T05:09:27;1026.56;;;0.375;33.7512
73306;BME280;61530;51.158;0.880;2023-03-01T05:10:32;1026.53;;;0.4375;33.6942
73306;BME280;61530;51.158;0.880;2023-03-01T05:11:35;1026.59;;;0.25;34.0407
73306;BME280;61530;51.158;0.880;2023-03-01T05:12:38;1026.57;;;0.3125;33.9221
73306;BME280;61530;51.158;0.880;2023-03-01T05:13:43;1026.55;;;0.25;34.2414
73306;BME280;61530;51.158;0.880;2023-03-01T05:14:46;1026.58;;;0.125;34.4313
73306;BME280;61530;51.158;0.880;2023-03-01T05:15:55;1026.56;;;0.1875;34.6568
73306;BME280;61530;51.158;0.880;2023-03-01T05:16:54;1026.57;;;0.1875;35.0588
73306;BME280;61530;51.158;0.880;2023-03-01T05:17:59;1026.59;;;0.25;35.0972
73306;BME280;61530;51.158;0.880;2023-03-01T05:19:03;1026.59;;;0.0625;34.7323
73306;BME280;61530;51.158;0.880;2023-03-01T05:20:07;1026.6;;;0.0625;34.426
73306;BME280;61530;51.158;0.880;2023-03-01T05:21:12;1026.6;;;-0.125;34.586
73306;BME280;61530;51.158;0.880;2023-03-01T05:22:15;1026.59;;;0.0;34.3203
73306;BME280;61530;51.158;0.880;2023-03-01T05:23:18;1026.59;;;0.0;34.3702
73306;BME280;61530;51.158;0.880;2023-03-01T05:24:22;1026.58;;;-0.125;35.067
73306;BME280;61530;51.158;0.880;2023-03-01T05:25:26;1026.6;;;-0.1875;34.6323
73306;BME280;61530;51.158;0.880;2023-03-01T05:26:31;1026.59;;;-0.125;34.9198
73306;BME280;61530;51.158;0.880;2023-03-01T05:27:35;1026.61;;;-0.0625;35.5532
73306;BME280;61530;51.158;0.880;2023-03-01T05:28:39;1026.61;;;0.0;35.3658
73306;BME280;61530;51.158;0.880;2023-03-01T05:29:42;1026.58;;;0.0;36.2302
73306;BME280;61530;51.158;0.880;2023-03-01T05:30:47;1026.56;;;0.0625;35.2878
73306;BME280;61530;51.158;0.880;2023-03-01T05:31:51;1026.56;;;-0.0625;34.8404
73306;BME280;61530;51.158;0.880;2023-03-01T05:32:54;1026.52;;;0.0;35.4166
73306;BME280;61530;51.158;0.880;2023-03-01T05:33:58;1026.52;;;0.0625;35.1684
73306;BME280;61530;51.158;0.880;2023-03-01T05:35:03;1026.51;;;0.0;35.4121
73306;BME280;61530;51.158;0.880;2023-03-01T05:36:07;1026.5;;;0.0;35.4176
73306;BME280;61530;51.158;0.880;2023-03-01T05:37:10;1026.48;;;0.0;34.9605
73306;BME280;61530;51.158;0.880;2023-03-01T05:38:15;1026.48;;;-0.0625;35.6101
73306;BME280;61530;51.158;0.880;2023-03-01T05:39:20;1026.49;;;-0.0625;35.2385
73306;BME280;61530;51.158;0.880;2023-03-01T05:40:23;1026.47;;;-0.125;35.6895
73306;BME280;61530;51.158;0.880;2023-03-01T05:41:26;1026.45;;;-0.125;35.4926
73306;BME280;61530;51.158;0.880;2023-03-01T05:42:30;1026.45;;;-0.25;36.1351